Time;durP1;ratioP1;P1;durP2;ratioP2;P2;SDS_P1;SDS_P2;PMS_P1;PMS_P2;Temp;Humidity;BMP_temperature;BMP_pressure;BME280_temperature;BME280_humidity;BME280_pressure;Samples;Min_cycle;Max_cycle;Signal;HPM_P1;HPM_P2
2023/04/08 00:00:33;;;;;;;29.83;17.90;;;;;;;-141.97;48.11;47622.88;5054476;28;20172;-88
2023/04/08 00:03:00;;;;;;;28.17;17.10;;;;;;;-141.97;48.04;47657.47;5050306;28;20178;-87
2023/04/08 00:05:25;;;;;;;27.40;16.83;;;;;;;-141.97;47.95;47580.59;5051303;28;20254;-87
2023/04/08 00:07:51;;;;;;;28.80;17.37;;;;;;;-141.97;47.07;47649.78;5051478;28;20201;-86
2023/04/08 00:10:17;;;;;;;27.47;16.67;;;;;;;-141.97;46.87;47624.78;5049735;28;20256;-86
2023/04/08 00:12:42;;;;;;;28.83;17.37;;;;;;;-141.97;46.30;47486.41;5055863;28;20237;-87
2023/04/08 00:15:08;;;;;;;26.93;16.77;;;;;;;-141.97;46.37;47607.50;5058534;28;20180;-86
2023/04/08 00:17:33;;;;;;;27.27;16.63;;;;;;;-141.97;46.45;47686.31;5053119;28;20642;-87
2023/04/08 00:19:59;;;;;;;29.47;17.30;;;;;;;-141.97;46.73;47738.19;5053175;28;20589;-87
2023/04/08 00:22:24;;;;;;;28.43;17.50;;;;;;;-141.97;46.97;47640.16;5053240;28;20256;-88
2023/04/08 00:24:50;;;;;;;26.03;16.60;;;;;;;-141.97;46.66;47722.81;5054806;28;20165;-87
2023/04/08 00:27:15;;;;;;;22.20;15.37;;;;;;;-141.97;45.63;47580.59;5054283;28;20178;-87
2023/04/08 00:29:41;;;;;;;27.47;16.37;;;;;;;-141.97;45.15;47738.19;5054359;28;20176;-87
2023/04/08 00:32:06;;;;;;;25.10;15.63;;;;;;;-141.97;44.92;47469.09;5054413;28;20165;-86
2023/04/08 00:34:32;;;;;;;23.83;16.33;;;;;;;-141.97;45.08;47611.34;5054175;28;20197;-87
2023/04/08 00:37:00;;;;;;;25.47;16.33;;;;;;;-141.97;45.40;47678.63;5072788;28;20160;-86
2023/04/08 00:39:25;;;;;;;26.17;16.23;;;;;;;-141.97;45.90;47622.88;5079638;28;20229;-86
2023/04/08 00:41:50;;;;;;;25.23;16.17;;;;;;;-141.97;45.94;47594.03;5079284;28;20176;-86
2023/04/08 00:44:16;;;;;;;27.10;16.57;;;;;;;-141.97;46.42;47615.19;5058756;28;20228;-87
2023/04/08 00:46:41;;;;;;;26.27;16.50;;;;;;;-141.97;46.87;47657.47;5052693;28;20216;-87
2023/04/08 00:49:07;;;;;;;30.53;18.83;;;;;;;-141.97;47.02;47590.19;5054422;28;20170;-87
2023/04/08 00:51:35;;;;;;;29.70;18.53;;;;;;;-141.97;47.35;47747.81;5054305;28;20204;-87
2023/04/08 00:54:01;;;;;;;34.30;19.67;;;;;;;-141.97;47.58;47595.97;5053959;28;20608;-88
2023/04/08 00:56:26;;;;;;;33.47;19.70;;;;;;;-141.97;47.72;47580.59;5059645;28;20185;-85
2023/04/08 00:58:54;;;;;;;34.73;19.10;;;;;;;-141.97;48.01;47484.47;5058531;28;20269;-87
2023/04/08 01:02:05;;;;;;;31.03;19.07;;;;;;;-141.97;47.84;47628.63;5053760;28;20174;-86
2023/04/08 01:04:52;;;;;;;31.43;19.30;;;;;;;-141.97;48.26;47624.78;5053649;28;20177;-87
2023/04/08 01:07:27;;;;;;;30.83;18.70;;;;;;;-141.97;48.35;47649.78;5053320;28;20170;-86
2023/04/08 01:10:01;;;;;;;33.13;19.70;;;;;;;-141.97;49.29;47669.00;5053303;28;20219;-88
2023/04/08 01:12:29;;;;;;;31.17;18.03;;;;;;;-141.97;50.00;47657.47;5052118;28;20174;-88
2023/04/08 01:15:00;;;;;;;29.23;17.40;;;;;;;-141.97;51.47;47665.16;5053944;28;20173;-87
2023/04/08 01:17:26;;;;;;;29.50;18.13;;;;;;;-141.97;51.65;47676.69;5053738;28;20162;-86
2023/04/08 01:19:56;;;;;;;29.10;17.33;;;;;;;-141.97;53.30;47799.72;5053167;28;20173;-87
2023/04/08 01:22:39;;;;;;;27.67;17.03;;;;;;;-141.97;56.30;47649.78;5052353;28;20614;-87
2023/04/08 01:25:11;;;;;;;29.97;17.27;;;;;;;-141.97;59.09;47661.31;5053226;28;20200;-87
2023/04/08 01:27:38;;;;;;;28.83;17.33;;;;;;;-141.97;62.06;47692.06;5051914;28;20264;-88
2023/04/08 01:30:06;;;;;;;29.07;16.60;;;;;;;-141.97;65.09;47626.72;5052340;28;20260;-88
2023/04/08 01:32:34;;;;;;;33.17;17.83;;;;;;;-141.97;67.03;47695.91;5053082;28;20183;-89
2023/04/08 01:35:01;;;;;;;35.10;17.93;;;;;;;-141.97;70.84;47580.59;5052227;28;20172;-89
2023/04/08 01:37:28;;;;;;;29.03;17.47;;;;;;;-141.97;70.44;47640.16;5053211;28;20180;-88
2023/04/08 01:39:54;;;;;;;29.53;18.00;;;;;;;-141.97;71.32;47661.31;5052746;28;20223;-86
2023/04/08 01:42:22;;;;;;;32.53;18.57;;;;;;;-141.97;72.48;47542.16;5052841;28;20689;-86
2023/04/08 01:44:49;;;;;;;29.73;17.90;;;;;;;-141.97;72.96;47707.44;5052864;28;20207;-88
2023/04/08 01:47:15;;;;;;;30.70;18.20;;;;;;;-141.97;72.87;47496.00;5053270;28;20200;-87
2023/04/08 01:49:42;;;;;;;29.83;18.20;;;;;;;-141.97;73.88;47626.72;5052862;28;20185;-86
2023/04/08 01:52:09;;;;;;;32.57;18.57;;;;;;;-141.97;74.22;47692.06;5050649;28;20181;-86
2023/04/08 01:54:35;;;;;;;32.77;18.90;;;;;;;-141.97;74.60;47661.31;5050941;28;20176;-86
2023/04/08 01:57:05;;;;;;;34.53;19.37;;;;;;;-141.97;74.79;47638.25;5052407;28;20581;-86
2023/04/08 01:59:35;;;;;;;34.37;18.73;;;;;;;-141.97;74.87;47718.97;5048804;28;20169;-86
2023/04/08 02:02:04;;;;;;;32.80;18.60;;;;;;;-141.97;75.27;47594.03;5057244;28;20543;-88
2023/04/08 02:04:29;;;;;;;36.30;19.77;;;;;;;-141.97;75.73;47594.03;5052692;28;20192;-87
2023/04/08 02:06:57;;;;;;;33.40;18.77;;;;;;;-141.97;76.05;47484.47;5052115;28;20193;-87
2023/04/08 02:09:24;;;;;;;34.33;19.87;;;;;;;-141.97;76.47;47465.25;5052188;28;20162;-88
2023/04/08 02:11:49;;;;;;;34.07;19.70;;;;;;;-141.97;77.88;47720.91;5050234;28;20258;-87
2023/04/08 02:14:14;;;;;;;34.23;19.17;;;;;;;-141.97;78.14;47553.69;5051567;28;20324;-86
2023/04/08 02:16:52;;;;;;;34.80;19.30;;;;;;;-141.97;77.84;47642.09;5051604;28;20184;-88
2023/04/08 02:19:53;;;;;;;35.13;19.77;;;;;;;-141.97;77.87;47632.47;5048468;28;20173;-87
2023/04/08 02:22:27;;;;;;;35.00;19.13;;;;;;;-141.97;78.91;47649.78;4954367;28;20192;-88
2023/04/08 02:24:52;;;;;;;35.97;20.07;;;;;;;-141.97;78.79;47640.16;4968088;28;20172;-88
2023/04/08 02:27:19;;;;;;;38.33;19.47;;;;;;;-141.97;78.78;47626.72;4970158;28;20747;-87
2023/04/08 02:29:46;;;;;;;35.20;20.30;;;;;;;-141.97;78.65;47684.38;4970752;28;20172;-87
2023/04/08 02:32:13;;;;;;;34.33;19.93;;;;;;;-141.97;79.18;47617.09;4951178;28;20168;-87
2023/04/08 02:34:43;;;;;;;37.20;21.20;;;;;;;-141.97;79.47;47795.88;4959291;28;20176;-87
2023/04/08 02:37:09;;;;;;;34.80;20.13;;;;;;;-141.97;80.82;47694.00;4970804;28;20669;-87
2023/04/08 02:39:34;;;;;;;36.20;20.50;;;;;;;-141.97;81.31;47642.09;4971449;28;20200;-87
2023/04/08 02:42:00;;;;;;;40.20;21.10;;;;;;;-141.97;81.86;47632.47;4970202;28;20184;-88
2023/04/08 02:44:25;;;;;;;39.33;20.57;;;;;;;-141.97;82.11;47718.97;4970376;28;20200;-88
2023/04/08 02:46:51;;;;;;;38.17;21.23;;;;;;;-141.97;82.13;47724.75;4967324;28;20223;-87
2023/04/08 02:49:16;;;;;;;40.03;20.90;;;;;;;-141.97;81.74;47703.59;4970146;28;20182;-87
2023/04/08 02:51:42;;;;;;;36.80;20.57;;;;;;;-141.97;81.43;47588.28;4970347;28;20247;-87
2023/04/08 02:54:07;;;;;;;37.33;20.87;;;;;;;-141.97;82.55;47588.28;4953964;28;20199;-88
2023/04/08 02:56:32;;;;;;;37.33;21.37;;;;;;;-141.97;83.10;47657.47;4970451;28;20694;-88
2023/04/08 02:58:58;;;;;;;36.27;20.40;;;;;;;-141.97;84.30;47757.41;5012147;28;20725;-87
2023/04/08 03:01:23;;;;;;;41.77;20.90;;;;;;;-141.97;84.72;47617.09;5050947;28;20196;-88
2023/04/08 03:03:49;;;;;;;44.30;21.13;;;;;;;-141.97;84.95;47757.41;5062515;28;20253;-87
2023/04/08 03:06:15;;;;;;;40.83;21.47;;;;;;;-141.97;84.26;47597.88;5076480;28;20199;-86
2023/04/08 03:08:40;;;;;;;39.57;22.20;;;;;;;-141.97;84.64;47745.88;5075060;28;20225;-87
2023/04/08 03:11:06;;;;;;;37.90;21.27;;;;;;;-141.97;84.49;47742.03;5053394;28;20174;-87
2023/04/08 03:13:32;;;;;;;41.50;21.67;;;;;;;-141.97;83.41;47647.84;5050133;28;20308;-87
2023/04/08 03:15:57;;;;;;;37.00;20.73;;;;;;;-141.97;84.17;47680.53;5050265;28;20166;-87
2023/04/08 03:18:23;;;;;;;39.23;21.50;;;;;;;-141.97;85.10;47647.84;5051371;28;20208;-87
2023/04/08 03:20:48;;;;;;;41.97;21.70;;;;;;;-141.97;85.64;47561.38;5059948;28;20177;-87
2023/04/08 03:23:14;;;;;;;43.20;21.90;;;;;;;-141.97;85.85;47634.41;5074685;28;20167;-87
2023/04/08 03:25:39;;;;;;;46.17;22.37;;;;;;;-141.97;86.61;47707.44;5053180;28;20223;-88
2023/04/08 03:28:05;;;;;;;43.53;22.40;;;;;;;-141.97;87.20;47688.22;5052080;28;20157;-87
2023/04/08 03:30:30;;;;;;;41.07;22.40;;;;;;;-141.97;86.88;47667.06;5051613;28;20180;-86
2023/04/08 03:32:56;;;;;;;41.17;21.17;;;;;;;-141.97;86.83;47686.31;5052225;28;20170;-89
2023/04/08 03:35:21;;;;;;;42.37;22.00;;;;;;;-141.97;87.70;47707.44;5051700;28;20677;-86
2023/04/08 03:37:47;;;;;;;39.63;22.03;;;;;;;-141.97;86.92;47717.06;5062071;28;20174;-87
2023/04/08 03:40:12;;;;;;;44.13;22.73;;;;;;;-141.97;86.60;47669.00;5070863;28;20164;-87
2023/04/08 03:42:38;;;;;;;39.33;21.67;;;;;;;-141.97;85.91;47569.06;5066337;28;20177;-85
2023/04/08 03:45:04;;;;;;;41.27;22.60;;;;;;;-141.97;85.97;47726.66;5061952;28;20173;-85
2023/04/08 03:47:29;;;;;;;43.57;22.33;;;;;;;-141.97;87.20;47663.22;5057707;28;20161;-87
2023/04/08 03:49:55;;;;;;;42.90;22.90;;;;;;;-141.97;87.04;47726.66;5059925;28;20537;-87
2023/04/08 03:52:20;;;;;;;44.73;23.03;;;;;;;-141.97;87.95;47740.13;5073373;28;20225;-86
2023/04/08 03:54:46;;;;;;;43.80;23.53;;;;;;;-141.97;88.70;47565.22;5062710;28;20259;-87
2023/04/08 03:57:11;;;;;;;47.63;23.43;;;;;;;-141.97;88.66;47753.56;5055342;28;20176;-87
2023/04/08 03:59:38;;;;;;;43.90;23.53;;;;;;;-141.97;87.82;47588.28;5055611;28;20169;-87
2023/04/08 04:02:04;;;;;;;54.90;27.50;;;;;;;-141.97;87.99;47547.91;5055960;28;20180;-87
2023/04/08 04:04:29;;;;;;;50.93;25.70;;;;;;;-141.97;88.55;47624.78;5057931;28;20181;-87
2023/04/08 04:06:55;;;;;;;49.33;26.00;;;;;;;-141.97;87.54;47607.50;5054359;28;20262;-87
2023/04/08 04:09:20;;;;;;;45.87;24.53;;;;;;;-141.97;87.70;47642.09;5053696;28;20497;-87
2023/04/08 04:11:45;;;;;;;50.83;26.53;;;;;;;-141.97;88.28;47567.13;5055401;28;20169;-86
2023/04/08 04:14:11;;;;;;;47.37;25.00;;;;;;;-141.97;88.36;47647.84;5054689;28;20225;-88
2023/04/08 04:16:36;;;;;;;48.90;24.33;;;;;;;-141.97;89.18;47655.53;5055197;28;20196;-88
2023/04/08 04:19:02;;;;;;;53.00;26.13;;;;;;;-141.97;89.29;47595.97;5054885;28;20181;-88
2023/04/08 04:21:27;;;;;;;47.33;25.47;;;;;;;-141.97;88.73;47628.63;5054896;28;20166;-88
2023/04/08 04:23:53;;;;;;;63.50;31.93;;;;;;;-141.97;87.73;47619.03;5054499;28;20169;-87
2023/04/08 04:26:19;;;;;;;58.57;30.97;;;;;;;-141.97;87.68;47622.88;5054661;28;20286;-87
2023/04/08 04:28:45;;;;;;;53.53;27.67;;;;;;;-141.97;87.26;47638.25;5054126;28;20566;-87
2023/04/08 04:31:18;;;;;;;45.87;24.47;;;;;;;-141.97;87.41;47484.47;5055182;28;20177;-87
2023/04/08 04:33:44;;;;;;;53.83;24.97;;;;;;;-141.97;87.85;47565.22;5054842;28;20180;-86
2023/04/08 04:36:09;;;;;;;48.83;24.83;;;;;;;-141.97;87.85;47638.25;5039820;28;20173;-87
2023/04/08 04:38:35;;;;;;;47.77;24.57;;;;;;;-141.97;88.11;47480.63;5056736;28;20177;-87
2023/04/08 04:41:01;;;;;;;45.43;24.13;;;;;;;-141.97;87.65;47626.72;5062151;28;20314;-88
2023/04/08 04:43:26;;;;;;;46.33;24.67;;;;;;;-141.97;87.47;47590.19;5068694;28;20157;-89
2023/04/08 04:45:52;;;;;;;58.27;27.40;;;;;;;-141.97;86.89;47663.22;5068529;28;20215;-89
2023/04/08 04:48:17;;;;;;;45.27;24.07;;;;;;;-141.97;86.15;47767.03;5059589;28;20169;-88
2023/04/08 04:50:43;;;;;;;48.60;25.37;;;;;;;-141.97;86.33;47645.94;5054193;28;20193;-88
2023/04/08 04:53:08;;;;;;;49.93;25.73;;;;;;;-141.97;86.90;47734.34;5065448;28;20192;-88
2023/04/08 04:55:33;;;;;;;48.27;25.50;;;;;;;-141.97;87.03;47603.66;5061436;28;20656;-87
2023/04/08 04:57:59;;;;;;;50.83;25.57;;;;;;;-141.97;86.82;47505.63;5062507;28;20174;-87
2023/04/08 05:00:24;;;;;;;63.33;32.37;;;;;;;-141.97;86.83;47538.28;5061511;28;20626;-88
2023/04/08 05:02:50;;;;;;;54.57;28.80;;;;;;;-141.97;85.91;47688.22;5062790;28;20200;-86
2023/04/08 05:05:16;;;;;;;47.43;26.07;;;;;;;-141.97;85.52;47709.38;5054031;28;20208;-87
2023/04/08 05:07:41;;;;;;;49.93;26.23;;;;;;;-141.97;84.58;47692.06;5054026;28;20695;-88
2023/04/08 05:10:07;;;;;;;47.63;25.07;;;;;;;-141.97;83.34;47674.78;5053638;28;20637;-86
2023/04/08 05:12:32;;;;;;;53.57;25.83;;;;;;;-141.97;81.86;47663.22;5053566;28;20221;-87
2023/04/08 05:15:01;;;;;;;45.50;24.47;;;;;;;-141.97;82.24;47657.47;5053562;28;20181;-87
2023/04/08 05:17:26;;;;;;;45.70;24.37;;;;;;;-141.97;80.77;47726.66;5053721;28;20322;-86
2023/04/08 05:19:52;;;;;;;46.63;24.70;;;;;;;-141.97;80.22;47707.44;5052691;28;20224;-88
2023/04/08 05:22:17;;;;;;;46.87;24.07;;;;;;;-141.97;80.04;47578.66;5053276;28;20551;-87
2023/04/08 05:24:43;;;;;;;47.00;24.87;;;;;;;-141.97;80.60;47611.34;5053339;28;20185;-87
2023/04/08 05:27:09;;;;;;;51.73;26.17;;;;;;;-141.97;80.58;47684.38;5053311;28;20201;-90
2023/04/08 05:29:34;;;;;;;51.93;25.77;;;;;;;-141.97;80.32;47640.16;5056017;28;20212;-87
2023/04/08 05:31:59;;;;;;;51.47;26.00;;;;;;;-141.97;80.88;47657.47;5078155;28;20203;-87
2023/04/08 05:34:25;;;;;;;52.80;26.47;;;;;;;-141.97;81.91;47718.97;5077976;28;20189;-87
2023/04/08 05:36:50;;;;;;;53.77;26.20;;;;;;;-141.97;81.25;47669.00;5063587;28;20596;-88
2023/04/08 05:39:17;;;;;;;52.40;26.60;;;;;;;-141.97;80.99;47645.94;5053145;28;20173;-87
2023/04/08 05:41:43;;;;;;;53.50;25.47;;;;;;;-141.97;80.73;47665.16;5051520;28;20227;-88
2023/04/08 05:44:09;;;;;;;53.30;25.83;;;;;;;-141.97;80.57;47665.16;5053316;28;20161;-88
2023/04/08 05:46:34;;;;;;;50.07;26.43;;;;;;;-141.97;80.70;47595.97;5052978;28;20197;-88
2023/04/08 05:49:00;;;;;;;50.90;25.77;;;;;;;-141.97;80.50;47505.63;5053121;28;20162;-87
2023/04/08 05:51:25;;;;;;;57.93;28.27;;;;;;;-141.97;80.27;47699.75;5052937;28;20511;-88
2023/04/08 05:53:51;;;;;;;57.77;28.37;;;;;;;-141.97;79.10;47699.75;5052700;28;20172;-87
2023/04/08 05:56:16;;;;;;;57.17;27.33;;;;;;;-141.97;77.75;47669.00;5052989;28;20169;-89
2023/04/08 05:58:41;;;;;;;52.00;25.53;;;;;;;-141.97;77.29;47768.94;5051771;28;20257;-88
2023/04/08 06:01:07;;;;;;;52.07;27.00;;;;;;;-141.97;76.29;47569.06;5050121;28;20187;-87
2023/04/08 06:03:32;;;;;;;50.97;25.80;;;;;;;-141.97;75.04;47557.53;5051930;28;20231;-89
2023/04/08 06:05:58;;;;;;;52.60;26.33;;;;;;;-141.97;74.47;47669.00;5058188;28;20201;-88
2023/04/08 06:08:23;;;;;;;51.70;26.73;;;;;;;-141.97;72.95;47599.81;5075001;28;20176;-88
2023/04/08 06:10:51;;;;;;;50.60;26.60;;;;;;;-141.97;72.33;47757.41;5054679;28;20174;-88
2023/04/08 06:13:19;;;;;;;53.30;26.83;;;;;;;-141.97;72.69;47672.84;5050492;28;20228;-86
2023/04/08 06:15:44;;;;;;;57.03;28.83;;;;;;;-141.97;73.63;47619.03;5050361;28;20177;-87
2023/04/08 06:18:10;;;;;;;50.53;26.53;;;;;;;-141.97;72.78;47745.88;5051646;28;20577;-88
2023/04/08 06:20:35;;;;;;;50.30;25.73;;;;;;;-141.97;72.35;47622.88;5051282;28;20661;-88
2023/04/08 06:23:01;;;;;;;53.53;25.83;;;;;;;-141.97;71.71;47688.22;5050909;28;20185;-85
2023/04/08 06:25:26;;;;;;;54.70;27.17;;;;;;;-141.97;70.95;47507.53;5051959;28;20193;-84
2023/04/08 06:27:51;;;;;;;58.83;26.33;;;;;;;-141.97;69.78;47680.53;5052165;28;20694;-85
2023/04/08 06:30:17;;;;;;;48.93;25.10;;;;;;;-141.97;67.43;47628.63;5051914;28;20231;-85
2023/04/08 06:32:46;;;;;;;50.87;25.67;;;;;;;-141.97;68.40;47640.16;5051889;28;20177;-85
2023/04/08 06:35:11;;;;;;;53.00;26.53;;;;;;;-141.97;68.10;47817.00;5053467;28;20162;-85
2023/04/08 06:37:37;;;;;;;51.67;25.77;;;;;;;-141.97;68.27;47674.78;5053647;28;20165;-86
2023/04/08 06:40:04;;;;;;;50.67;25.17;;;;;;;-141.97;69.27;47615.19;5052245;28;20172;-85
2023/04/08 06:42:29;;;;;;;49.10;25.67;;;;;;;-141.97;69.21;47613.25;5051981;28;20168;-86
2023/04/08 06:44:55;;;;;;;49.50;24.67;;;;;;;-141.97;69.60;47586.34;5052071;28;20169;-87
2023/04/08 06:47:21;;;;;;;48.03;23.97;;;;;;;-141.97;69.26;47676.69;5051270;28;20256;-88
2023/04/08 06:49:47;;;;;;;50.57;24.80;;;;;;;-141.97;69.40;47738.19;5051665;28;20203;-86
2023/04/08 06:52:12;;;;;;;48.20;23.70;;;;;;;-141.97;68.81;47536.38;5051558;28;20173;-87
2023/04/08 06:54:38;;;;;;;52.27;23.97;;;;;;;-141.97;69.33;47765.09;5049985;28;20197;-85
2023/04/08 06:57:03;;;;;;;49.87;24.07;;;;;;;-141.97;68.54;47521.00;5051845;28;20527;-87
2023/04/08 06:59:29;;;;;;;49.40;24.57;;;;;;;-141.97;68.35;47757.41;5051611;28;20208;-86
2023/04/08 07:01:54;;;;;;;52.87;24.97;;;;;;;-141.97;68.76;47753.56;5050537;28;20532;-85
2023/04/08 07:04:20;;;;;;;47.23;23.20;;;;;;;-141.97;67.52;47653.63;5059493;28;20166;-86
2023/04/08 07:06:45;;;;;;;44.33;23.50;;;;;;;-141.97;65.70;47761.25;5059818;28;20196;-85
2023/04/08 07:09:11;;;;;;;44.87;22.70;;;;;;;-141.97;62.89;47649.78;5051892;28;20168;-87
2023/04/08 07:11:36;;;;;;;42.73;22.77;;;;;;;-141.97;63.08;47674.78;5052260;28;20671;-85
2023/04/08 07:14:02;;;;;;;44.23;22.97;;;;;;;-141.97;63.28;47720.91;5054945;28;20237;-85
2023/04/08 07:16:27;;;;;;;42.53;22.97;;;;;;;-141.97;65.43;47715.13;5052707;28;20188;-87
2023/04/08 07:18:53;;;;;;;44.13;23.20;;;;;;;-141.97;63.67;47467.19;5051320;28;20590;-86
2023/04/08 07:21:18;;;;;;;44.23;22.40;;;;;;;-141.97;60.53;47682.47;5050207;28;20166;-88
2023/04/08 07:23:43;;;;;;;43.30;22.50;;;;;;;-141.97;57.24;47653.63;5051207;28;20166;-86
2023/04/08 07:26:09;;;;;;;42.83;22.13;;;;;;;-141.97;54.62;47584.44;5049720;28;20644;-87
2023/04/08 07:28:34;;;;;;;43.60;23.40;;;;;;;-141.97;53.88;47707.44;5051144;28;20169;-87
2023/04/08 07:31:17;;;;;;;39.43;22.53;;;;;;;-141.97;51.56;47776.63;5050970;28;20252;-86
2023/04/08 07:33:43;;;;;;;42.57;23.43;;;;;;;-141.97;51.93;47588.28;5050768;28;20166;-86
2023/04/08 07:36:10;;;;;;;45.03;24.33;;;;;;;-141.97;51.79;47657.47;5050954;28;20169;-85
2023/04/08 07:38:36;;;;;;;38.73;22.07;;;;;;;-141.97;50.31;47653.63;5049667;28;20173;-86
2023/04/08 07:41:02;;;;;;;36.77;21.50;;;;;;;-141.97;49.22;47599.81;5051012;28;20168;-87
2023/04/08 07:43:29;;;;;;;36.90;20.80;;;;;;;-141.97;49.22;47521.00;5051694;28;20165;-87
2023/04/08 07:46:01;;;;;;;39.03;22.30;;;;;;;-141.97;50.76;47546.00;5049813;28;20630;-85
2023/04/08 07:48:27;;;;;;;41.10;22.50;;;;;;;-141.97;50.81;47532.53;5051137;28;20169;-86
2023/04/08 07:50:52;;;;;;;38.27;21.63;;;;;;;-141.97;51.45;47726.66;5050964;28;20173;-86
2023/04/08 07:53:17;;;;;;;39.93;21.97;;;;;;;-141.97;50.29;47638.25;5051499;28;20169;-87
2023/04/08 07:55:43;;;;;;;38.67;22.13;;;;;;;-141.97;50.88;47653.63;5051073;28;20246;-85
2023/04/08 07:58:08;;;;;;;39.23;21.83;;;;;;;-141.97;48.93;47655.53;5058475;28;20169;-86
2023/04/08 08:00:34;;;;;;;40.00;22.60;;;;;;;-141.97;49.24;47592.13;5074923;28;20176;-86
2023/04/08 08:02:59;;;;;;;36.90;22.33;;;;;;;-141.97;48.04;47709.38;5076234;28;20165;-88
2023/04/08 08:05:25;;;;;;;37.90;22.37;;;;;;;-141.97;47.92;47603.66;5052937;28;20200;-87
2023/04/08 08:07:50;;;;;;;39.30;23.17;;;;;;;-141.97;47.71;47619.03;5053425;28;20199;-86
2023/04/08 08:10:16;;;;;;;36.80;22.43;;;;;;;-141.97;47.72;47630.56;5053622;28;20547;-85
2023/04/08 08:12:41;;;;;;;36.40;22.00;;;;;;;-141.97;47.51;47770.88;5055638;28;20720;-86
2023/04/08 08:15:07;;;;;;;35.67;21.70;;;;;;;-141.97;48.30;47695.91;5052535;28;20174;-87
2023/04/08 08:17:32;;;;;;;39.37;22.20;;;;;;;-141.97;46.96;47634.41;5051560;28;20223;-89
2023/04/08 08:19:59;;;;;;;37.90;21.93;;;;;;;-141.97;49.51;47409.53;5051008;28;20157;-85
2023/04/08 08:22:25;;;;;;;36.50;22.30;;;;;;;-141.97;48.88;47799.72;5050656;28;20634;-85
2023/04/08 08:24:55;;;;;;;38.43;21.67;;;;;;;-141.97;47.90;47661.31;5051526;28;20216;-85
2023/04/08 08:27:21;;;;;;;36.83;21.57;;;;;;;-141.97;47.02;47626.72;5051484;28;20266;-87
2023/04/08 08:29:48;;;;;;;37.47;22.40;;;;;;;-141.97;46.19;47659.38;5052020;28;20248;-85
2023/04/08 08:32:13;;;;;;;38.37;21.80;;;;;;;-141.97;45.48;47636.31;5054160;28;20169;-86
2023/04/08 08:34:38;;;;;;;37.30;22.23;;;;;;;-141.97;45.69;47572.91;5056216;28;20539;-85
2023/04/08 08:37:04;;;;;;;34.93;21.83;;;;;;;-141.97;44.91;47669.00;5056012;28;20166;-86
2023/04/08 08:39:29;;;;;;;35.23;21.23;;;;;;;-141.97;43.86;47517.16;5056210;28;20169;-85
2023/04/08 08:41:55;;;;;;;35.60;21.60;;;;;;;-141.97;43.28;47782.41;5054347;28;20177;-87
2023/04/08 08:44:21;;;;;;;35.87;21.77;;;;;;;-141.97;43.00;47599.81;5054832;28;20173;-86
2023/04/08 08:46:47;;;;;;;34.03;20.93;;;;;;;-141.97;43.16;47647.84;5053507;28;20213;-86
2023/04/08 08:49:14;;;;;;;36.73;21.47;;;;;;;-141.97;44.48;47595.97;5056908;28;20181;-85
2023/04/08 08:51:40;;;;;;;39.13;22.40;;;;;;;-141.97;45.17;47592.13;5054809;28;20188;-85
2023/04/08 08:54:07;;;;;;;35.40;21.43;;;;;;;-141.97;44.04;47592.13;5065722;28;20449;-87
2023/04/08 08:56:33;;;;;;;37.03;21.70;;;;;;;-141.97;45.08;47609.41;5072253;28;20728;-84
2023/04/08 08:58:59;;;;;;;32.13;20.13;;;;;;;-141.97;43.21;47607.50;5056790;28;20173;-85
2023/04/08 09:01:39;;;;;;;36.13;21.23;;;;;;;-141.97;43.62;47494.09;5055142;28;20688;-87
2023/04/08 09:04:17;;;;;;;35.00;21.13;;;;;;;-141.97;44.04;47576.75;5054902;28;20173;-86
2023/04/08 09:06:44;;;;;;;34.87;21.70;;;;;;;-141.97;45.00;47642.09;5057015;28;20196;-86
2023/04/08 09:09:10;;;;;;;36.10;21.23;;;;;;;-141.97;46.91;47749.72;5058886;28;20174;-86
2023/04/08 09:11:39;;;;;;;36.40;22.07;;;;;;;-141.97;46.36;47626.72;5062604;28;20524;-85
2023/04/08 09:14:05;;;;;;;35.23;21.93;;;;;;;-141.97;45.32;47542.16;5064907;28;20212;-87
2023/04/08 09:16:31;;;;;;;38.33;22.37;;;;;;;-141.97;45.71;47617.09;5067376;28;20162;-86
2023/04/08 09:19:09;;;;;;;34.73;21.20;;;;;;;-141.97;44.64;47703.59;5069811;28;20193;-84
2023/04/08 09:21:34;;;;;;;30.57;19.90;;;;;;;-141.97;42.53;47688.22;5069514;28;20183;-83
2023/04/08 09:24:00;;;;;;;32.63;20.87;;;;;;;-141.97;41.91;47499.84;5069871;28;20177;-85
2023/04/08 09:26:28;;;;;;;30.63;18.97;;;;;;;-141.97;41.59;47669.00;5062313;28;20204;-85
2023/04/08 09:29:09;;;;;;;32.33;20.90;;;;;;;-141.97;42.19;47632.47;5053840;28;20169;-84
2023/04/08 09:31:41;;;;;;;30.53;19.53;;;;;;;-141.97;42.03;47634.41;5053229;28;20246;-85
2023/04/08 09:34:15;;;;;;;33.03;20.47;;;;;;;-141.97;42.56;47638.25;5051963;28;20187;-84
2023/04/08 09:36:41;;;;;;;31.53;20.90;;;;;;;-141.97;42.96;47551.75;5054495;28;20165;-85
2023/04/08 09:39:06;;;;;;;33.90;20.07;;;;;;;-141.97;42.25;47728.59;5051734;28;20872;-87
2023/04/08 09:41:37;;;;;;;31.63;20.73;;;;;;;-141.97;41.60;47517.16;5051440;28;20166;-85
2023/04/08 09:44:05;;;;;;;29.73;17.83;;;;;;;-141.97;40.01;47595.97;5050415;28;20205;-86
2023/04/08 09:46:40;;;;;;;27.87;18.20;;;;;;;-141.97;41.23;47624.78;5052520;28;20197;-85
2023/04/08 09:49:16;;;;;;;29.63;18.90;;;;;;;-141.97;41.93;47632.47;5052453;28;20267;-86
2023/04/08 09:51:52;;;;;;;29.20;18.93;;;;;;;-141.97;39.31;47655.53;5060237;28;20169;-87
2023/04/08 09:54:26;;;;;;;27.07;17.47;;;;;;;-141.97;38.57;47634.41;5068281;28;20175;-86
2023/04/08 09:57:02;;;;;;;29.23;18.13;;;;;;;-141.97;40.00;47472.94;5050541;28;20173;-87
2023/04/08 09:59:33;;;;;;;28.00;18.63;;;;;;;-141.97;40.45;47567.13;5052784;28;20169;-86
2023/04/08 10:02:04;;;;;;;27.17;17.83;;;;;;;-141.97;39.45;47613.25;5051840;28;20161;-86
2023/04/08 10:04:37;;;;;;;28.97;18.00;;;;;;;-141.97;38.52;47651.69;5052883;28;20332;-86
2023/04/08 10:07:05;;;;;;;27.33;17.23;;;;;;;-141.97;38.85;47642.09;5051577;28;20306;-86
2023/04/08 10:09:32;;;;;;;24.47;16.77;;;;;;;-141.97;37.35;47745.88;5051717;28;20169;-86
2023/04/08 10:11:58;;;;;;;25.53;17.17;;;;;;;-141.97;36.14;47767.03;5058475;28;20174;-86
2023/04/08 10:14:27;;;;;;;25.43;17.13;;;;;;;-141.97;35.69;47578.66;5057526;28;20591;-86
2023/04/08 10:17:29;;;;;;;22.90;16.77;;;;;;;-141.97;36.97;47778.56;5055724;28;20161;-86
2023/04/08 10:19:57;;;;;;;24.30;17.30;;;;;;;-141.97;36.30;47603.66;5052602;28;20180;-86
2023/04/08 10:22:28;;;;;;;25.03;18.17;;;;;;;-141.97;38.22;47594.03;5052898;28;20149;-86
2023/04/08 10:25:15;;;;;;;30.20;18.47;;;;;;;-141.97;38.21;47626.72;5054722;28;20157;-85
2023/04/08 10:27:43;;;;;;;28.23;18.60;;;;;;;-141.97;38.40;47613.25;5067423;28;20245;-87
2023/04/08 10:30:31;;;;;;;28.27;19.67;;;;;;;-141.97;38.45;47603.66;5077551;28;20169;-86
2023/04/08 10:32:58;;;;;;;30.47;20.10;;;;;;;-141.97;38.25;47557.53;4994369;28;20195;-87
2023/04/08 10:35:42;;;;;;;27.87;19.40;;;;;;;-141.97;37.44;47557.53;4994305;28;20190;-85
2023/04/08 10:38:08;;;;;;;30.07;20.07;;;;;;;-141.97;37.12;47601.72;4994175;28;20198;-84
2023/04/08 10:40:38;;;;;;;31.73;21.03;;;;;;;-141.97;36.84;47584.44;4978163;28;20691;-86
2023/04/08 10:43:04;;;;;;;26.53;18.80;;;;;;;-141.97;37.01;47592.13;4992248;28;20171;-85
2023/04/08 10:45:30;;;;;;;29.70;20.33;;;;;;;-141.97;37.22;47580.59;4997692;28;20213;-85
2023/04/08 10:47:55;;;;;;;31.20;20.00;;;;;;;-141.97;38.12;47586.34;5003528;28;20191;-88
2023/04/08 10:50:24;;;;;;;33.50;22.63;;;;;;;-141.97;38.41;47574.81;5002064;28;20207;-87
2023/04/08 10:52:51;;;;;;;46.77;26.70;;;;;;;-141.97;37.97;47626.72;4994818;28;20171;-87
2023/04/08 10:55:24;;;;;;;49.77;29.13;;;;;;;-141.97;37.21;47567.13;4976078;28;20174;-87
2023/04/08 10:57:50;;;;;;;32.10;20.30;;;;;;;-141.97;37.13;47697.84;4990274;28;20242;-87
2023/04/08 11:00:30;;;;;;;28.10;19.57;;;;;;;-141.97;37.62;47649.78;4990247;28;20258;-85
2023/04/08 11:03:00;;;;;;;30.93;20.17;;;;;;;-141.97;37.76;47532.53;4980439;28;20187;-86